createdAt,value
2016-06-14T00:00:10.240Z,978.29
2016-06-14T00:01:10.229Z,978.29
2016-06-14T00:02:10.232Z,978.23
2016-06-14T00:03:10.234Z,978.26
2016-06-14T00:04:10.222Z,978.26
2016-06-14T00:05:10.240Z,978.24
2016-06-14T00:06:10.228Z,978.24
2016-06-14T00:07:10.247Z,978.24
2016-06-14T00:08:10.250Z,978.23
2016-06-14T00:09:10.253Z,978.22
2016-06-14T00:10:10.240Z,978.28
2016-06-14T00:11:10.243Z,978.24
2016-06-14T00:12:10.247Z,978.26
2016-06-14T00:13:10.249Z,978.25
2016-06-14T00:14:10.346Z,978.25
2016-06-14T00:15:10.256Z,978.26
2016-06-14T00:16:10.258Z,978.23
2016-06-14T00:17:10.262Z,978.25
2016-06-14T00:18:10.250Z,978.23
2016-06-14T00:19:10.268Z,978.28
2016-06-14T00:20:10.271Z,978.24
2016-06-14T00:21:10.259Z,978.21
2016-06-14T00:22:10.277Z,978.26
2016-06-14T00:23:10.280Z,978.26
2016-06-14T00:24:10.268Z,978.25
2016-06-14T00:25:10.271Z,978.24
2016-06-14T00:26:10.274Z,978.19
2016-06-14T00:27:10.277Z,978.25
2016-06-14T00:28:10.280Z,978.19
2016-06-14T00:29:10.268Z,978.18
2016-06-14T00:30:10.723Z,978.2
2016-06-14T00:31:10.289Z,978.17
2016-06-14T00:32:10.277Z,978.16
2016-06-14T00:33:10.280Z,978.15
2016-06-14T00:34:10.282Z,978.17
2016-06-14T00:35:10.302Z,978.13
2016-06-14T00:36:10.305Z,978.11
2016-06-14T00:37:10.292Z,978.1
2016-06-14T00:38:10.295Z,978.11
2016-06-14T00:39:10.298Z,978.09
2016-06-14T00:40:10.318Z,978.07
2016-06-14T00:41:10.304Z,978.12
2016-06-14T00:42:10.307Z,978.09
2016-06-14T00:43:10.311Z,978.1
2016-06-14T00:44:10.314Z,978.06
2016-06-14T00:45:10.316Z,978.05
2016-06-14T00:46:10.304Z,978.06
2016-06-14T00:47:10.306Z,978.06
2016-06-14T00:48:10.310Z,978.03
2016-06-14T00:49:10.313Z,978.04
2016-06-14T00:50:10.316Z,978.03
2016-06-14T00:51:10.319Z,978.07
2016-06-14T00:52:10.322Z,978.03
2016-06-14T00:53:10.310Z,978.03
2016-06-14T00:54:10.329Z,978.03
2016-06-14T00:55:10.316Z,978.08
2016-06-14T00:56:10.351Z,978.02
2016-06-14T00:57:10.338Z,978.02
2016-06-14T00:58:10.340Z,978.01
2016-06-14T00:59:10.329Z,977.99
2016-06-14T01:00:10.332Z,978
2016-06-14T01:01:10.335Z,978.02
2016-06-14T01:02:10.338Z,977.98
2016-06-14T01:03:10.341Z,977.99
2016-06-14T01:04:10.344Z,978.01
2016-06-14T01:05:10.332Z,978.02
2016-06-14T01:06:10.334Z,978.03
2016-06-14T01:07:10.338Z,977.98
2016-06-14T01:08:10.340Z,977.98
2016-06-14T01:09:10.343Z,977.99
2016-06-14T01:10:10.347Z,977.98
2016-06-14T01:11:10.350Z,977.98
2016-06-14T01:12:10.352Z,977.95
2016-06-14T01:13:10.356Z,977.94
2016-06-14T01:14:10.359Z,977.96
2016-06-14T01:15:10.346Z,977.93
2016-06-14T01:16:10.348Z,977.97
2016-06-14T01:17:10.352Z,977.92
2016-06-14T01:18:10.372Z,977.94
2016-06-14T01:19:10.358Z,977.89
2016-06-14T01:20:10.361Z,977.98
2016-06-14T01:21:10.364Z,977.94
2016-06-14T01:22:10.368Z,977.92
2016-06-14T01:23:10.370Z,977.94
2016-06-14T01:24:10.389Z,977.89
2016-06-14T01:25:10.377Z,977.9
2016-06-14T01:26:10.380Z,977.91
2016-06-14T01:27:10.383Z,977.88
2016-06-14T01:28:10.386Z,977.86
2016-06-14T01:29:10.389Z,977.87
2016-06-14T01:30:10.392Z,977.87
2016-06-14T01:31:10.395Z,977.88
2016-06-14T01:32:10.383Z,977.89
2016-06-14T01:33:10.386Z,977.88
2016-06-14T01:34:10.389Z,977.88
2016-06-14T01:35:10.392Z,977.88
2016-06-14T01:36:10.396Z,977.92
2016-06-14T01:37:10.382Z,977.94
2016-06-14T01:38:10.385Z,977.91
2016-06-14T01:39:10.405Z,977.9
2016-06-14T01:40:10.392Z,977.9
2016-06-14T01:41:10.394Z,977.89
2016-06-14T01:42:10.414Z,977.87
2016-06-14T01:43:10.401Z,977.9
2016-06-14T01:44:10.404Z,977.87
2016-06-14T01:45:10.688Z,977.9
2016-06-14T01:46:10.410Z,977.9
2016-06-14T01:47:10.399Z,977.86
2016-06-14T01:48:10.416Z,977.81
2016-06-14T01:49:10.419Z,977.82
2016-06-14T01:50:10.407Z,977.83
2016-06-14T01:51:10.411Z,977.83
2016-06-14T01:52:10.428Z,977.84
2016-06-14T01:53:10.417Z,977.81
2016-06-14T01:54:10.419Z,977.78
2016-06-14T01:55:10.423Z,977.83
2016-06-14T01:56:10.426Z,977.79
2016-06-14T01:57:10.429Z,977.86
2016-06-14T01:58:10.416Z,977.85
2016-06-14T01:59:10.435Z,977.85
2016-06-14T02:00:10.750Z,977.86
2016-06-14T02:01:10.425Z,977.86
2016-06-14T02:02:10.428Z,977.86
2016-06-14T02:03:10.447Z,977.81
2016-06-14T02:04:10.435Z,977.78
2016-06-14T02:05:10.437Z,977.81
2016-06-14T02:06:10.441Z,977.77
2016-06-14T02:07:10.444Z,977.75
2016-06-14T02:08:10.447Z,977.73
2016-06-14T02:09:10.450Z,977.73
2016-06-14T02:10:10.453Z,977.76
2016-06-14T02:11:10.440Z,977.72
2016-06-14T02:12:10.459Z,977.73
2016-06-14T02:13:10.462Z,977.73
2016-06-14T02:14:10.450Z,977.72
2016-06-14T02:15:10.452Z,977.77
2016-06-14T02:16:10.455Z,977.75
2016-06-14T02:17:10.458Z,977.74
2016-06-14T02:18:10.462Z,977.75
2016-06-14T02:19:10.464Z,977.75
2016-06-14T02:20:10.452Z,977.75
2016-06-14T02:21:10.471Z,977.72
2016-06-14T02:22:10.473Z,977.74
2016-06-14T02:23:10.462Z,977.75
2016-06-14T02:24:10.465Z,977.73
2016-06-14T02:25:10.468Z,977.75
2016-06-14T02:26:10.486Z,977.74
2016-06-14T02:27:10.474Z,977.72
2016-06-14T02:28:10.477Z,977.73
2016-06-14T02:29:10.480Z,977.71
2016-06-14T02:30:10.483Z,977.7
2016-06-14T02:31:10.486Z,977.72
2016-06-14T02:32:10.473Z,977.69
2016-06-14T02:33:10.492Z,977.73
2016-06-14T02:34:10.480Z,977.76
2016-06-14T02:35:10.561Z,977.7
2016-06-14T02:36:10.563Z,977.74
2016-06-14T02:37:10.489Z,977.72
2016-06-14T02:38:10.508Z,977.78
2016-06-14T02:39:10.511Z,977.78
2016-06-14T02:40:10.514Z,977.77
2016-06-14T02:41:10.501Z,977.77
2016-06-14T02:42:10.521Z,977.77
2016-06-14T02:43:10.523Z,977.77
2016-06-14T02:44:10.527Z,977.76
2016-06-14T02:45:10.514Z,977.77
2016-06-14T02:46:10.516Z,977.77
2016-06-14T02:47:10.520Z,977.79
2016-06-14T02:48:10.523Z,977.77
2016-06-14T02:49:10.510Z,977.76
2016-06-14T02:50:10.529Z,977.79
2016-06-14T02:51:10.516Z,977.78
2016-06-14T02:52:10.535Z,977.79
2016-06-14T02:53:10.522Z,977.74
2016-06-14T02:54:10.588Z,977.76
2016-06-14T02:55:10.607Z,977.76
2016-06-14T02:56:10.548Z,977.8
2016-06-14T02:57:10.519Z,977.78
2016-06-14T02:58:10.522Z,977.81
2016-06-14T02:59:10.541Z,977.82
2016-06-14T03:00:10.965Z,977.81
2016-06-14T03:01:10.532Z,977.84
2016-06-14T03:02:10.535Z,977.75
2016-06-14T03:03:10.538Z,977.81
2016-06-14T03:04:10.541Z,977.83
2016-06-14T03:05:10.544Z,977.79
2016-06-14T03:06:10.547Z,977.79
2016-06-14T03:07:10.551Z,977.79
2016-06-14T03:08:10.553Z,977.81
2016-06-14T03:09:10.556Z,977.79
2016-06-14T03:10:10.559Z,977.79
2016-06-14T03:11:10.546Z,977.79
2016-06-14T03:12:10.550Z,977.76
2016-06-14T03:13:10.569Z,977.76
2016-06-14T03:14:10.571Z,977.79
2016-06-14T03:15:10.574Z,977.78
2016-06-14T03:16:10.578Z,977.74
2016-06-14T03:17:10.565Z,977.73
2016-06-14T03:18:10.584Z,977.76
2016-06-14T03:19:10.571Z,977.75
2016-06-14T03:20:10.574Z,977.76
2016-06-14T03:21:10.577Z,977.74
2016-06-14T03:22:10.580Z,977.78
2016-06-14T03:23:10.583Z,977.73
2016-06-14T03:24:10.587Z,977.77
2016-06-14T03:25:10.574Z,977.78
2016-06-14T03:26:10.592Z,977.75
2016-06-14T03:27:10.596Z,977.76
2016-06-14T03:28:10.599Z,977.84
2016-06-14T03:29:10.586Z,977.87
2016-06-14T03:30:10.605Z,977.85
2016-06-14T03:31:10.592Z,977.84
2016-06-14T03:32:10.596Z,977.84
2016-06-14T03:33:10.599Z,977.84
2016-06-14T03:34:10.602Z,977.88
2016-06-14T03:35:10.605Z,977.89
2016-06-14T03:36:10.608Z,977.88
2016-06-14T03:37:10.611Z,977.91
2016-06-14T03:38:10.599Z,977.87
2016-06-14T03:39:10.618Z,977.86
2016-06-14T03:40:10.605Z,977.8
2016-06-14T03:41:10.607Z,977.84
2016-06-14T03:42:10.610Z,977.84
2016-06-14T03:43:10.630Z,977.86
2016-06-14T03:44:10.617Z,977.81
2016-06-14T03:45:10.620Z,977.82
2016-06-14T03:46:10.623Z,977.8
2016-06-14T03:47:10.642Z,977.8
2016-06-14T03:48:10.629Z,977.77
2016-06-14T03:49:10.632Z,977.77
2016-06-14T03:50:10.635Z,977.76
2016-06-14T03:51:10.638Z,977.79
2016-06-14T03:52:10.641Z,977.78
2016-06-14T03:53:10.644Z,977.78
2016-06-14T03:54:10.648Z,977.75
2016-06-14T03:55:10.651Z,977.8
2016-06-14T03:56:10.653Z,977.79
2016-06-14T03:57:10.641Z,977.78
2016-06-14T03:58:10.644Z,977.76
2016-06-14T03:59:10.647Z,977.81
2016-06-14T04:00:11.353Z,977.8
2016-06-14T04:01:10.653Z,977.79
2016-06-14T04:02:10.641Z,977.76
2016-06-14T04:03:10.644Z,977.75
2016-06-14T04:04:10.648Z,977.77
2016-06-14T04:05:10.665Z,977.74
2016-06-14T04:06:10.653Z,977.76
2016-06-14T04:07:10.671Z,977.74
2016-06-14T04:08:10.660Z,977.78
2016-06-14T04:09:10.663Z,977.79
2016-06-14T04:10:10.665Z,977.78
2016-06-14T04:11:10.669Z,977.81
2016-06-14T04:12:10.672Z,977.77
2016-06-14T04:13:10.675Z,977.81
2016-06-14T04:14:10.678Z,977.79
2016-06-14T04:15:10.728Z,977.8
2016-06-14T04:16:10.668Z,977.71
2016-06-14T04:17:10.671Z,977.73
2016-06-14T04:18:10.674Z,977.75
2016-06-14T04:19:10.678Z,977.74
2016-06-14T04:20:10.681Z,977.74
2016-06-14T04:21:10.683Z,977.78
2016-06-14T04:22:10.687Z,977.8
2016-06-14T04:23:10.689Z,977.79
2016-06-14T04:24:10.693Z,977.77
2016-06-14T04:25:10.696Z,977.81
2016-06-14T04:26:10.699Z,977.7
2016-06-14T04:27:10.702Z,977.73
2016-06-14T04:28:10.706Z,977.7
2016-06-14T04:29:10.708Z,977.7
2016-06-14T04:30:10.711Z,977.72
2016-06-14T04:31:10.699Z,977.73
2016-06-14T04:32:10.702Z,977.76
2016-06-14T04:33:10.720Z,977.76
2016-06-14T04:34:10.708Z,977.76
2016-06-14T04:35:10.727Z,977.79
2016-06-14T04:36:10.729Z,977.78
2016-06-14T04:37:10.716Z,977.93
2016-06-14T04:38:10.736Z,978.04
2016-06-14T04:39:10.723Z,977.99
2016-06-14T04:40:10.742Z,978.02
2016-06-14T04:41:10.729Z,978.07
2016-06-14T04:42:10.732Z,978.02
2016-06-14T04:43:10.735Z,978.02
2016-06-14T04:44:10.738Z,977.97
2016-06-14T04:45:10.757Z,977.98
2016-06-14T04:46:10.744Z,977.94
2016-06-14T04:47:10.748Z,977.97
2016-06-14T04:48:10.751Z,977.93
2016-06-14T04:49:10.753Z,977.92
2016-06-14T04:50:10.757Z,977.9
2016-06-14T04:51:10.776Z,977.91
2016-06-14T04:52:10.779Z,977.88
2016-06-14T04:53:10.782Z,977.89
2016-06-14T04:54:10.785Z,977.82
2016-06-14T04:55:10.804Z,977.84
2016-06-14T04:56:10.807Z,977.86
2016-06-14T04:57:10.795Z,977.83
2016-06-14T04:58:10.813Z,977.72
2016-06-14T04:59:10.816Z,977.72
2016-06-14T05:00:10.834Z,977.75
2016-06-14T05:01:10.838Z,977.68
2016-06-14T05:02:10.826Z,977.66
2016-06-14T05:03:10.844Z,977.65
2016-06-14T05:04:10.847Z,977.6
2016-06-14T05:05:10.866Z,977.62
2016-06-14T05:06:10.853Z,977.61
2016-06-14T05:07:10.856Z,977.62
2016-06-14T05:08:10.875Z,977.61
2016-06-14T05:09:10.878Z,977.62
2016-06-14T05:10:10.881Z,977.65
2016-06-14T05:11:10.885Z,977.61
2016-06-14T05:12:10.888Z,977.6
2016-06-14T05:13:10.907Z,977.66
2016-06-14T05:14:10.894Z,977.66
2016-06-14T05:15:10.913Z,977.66
2016-06-14T05:16:11.478Z,977.68
2016-06-14T05:17:10.919Z,977.73
2016-06-14T05:18:10.922Z,977.73
2016-06-14T05:19:10.925Z,977.73
2016-06-14T05:20:10.928Z,977.75
2016-06-14T05:21:10.931Z,977.76
2016-06-14T05:22:10.934Z,977.77
2016-06-14T05:23:10.937Z,977.72
2016-06-14T05:24:10.956Z,977.74
2016-06-14T05:25:10.944Z,977.75
2016-06-14T05:26:10.962Z,977.73
2016-06-14T05:27:10.964Z,977.7
2016-06-14T05:28:10.968Z,977.71
2016-06-14T05:29:10.971Z,977.76
2016-06-14T05:30:10.974Z,977.75
2016-06-14T05:31:11.007Z,977.78
2016-06-14T05:32:10.980Z,977.79
2016-06-14T05:33:10.999Z,977.78
2016-06-14T05:34:11.002Z,977.72
2016-06-14T05:35:10.986Z,977.7
2016-06-14T05:36:10.989Z,977.68
2016-06-14T05:37:11.009Z,977.68
2016-06-14T05:38:11.011Z,977.7
2016-06-14T05:39:11.015Z,977.65
2016-06-14T05:40:11.017Z,977.62
2016-06-14T05:41:11.020Z,977.58
2016-06-14T05:42:11.024Z,977.59
2016-06-14T05:43:11.027Z,977.57
2016-06-14T05:44:11.030Z,977.61
2016-06-14T05:45:11.048Z,977.6
2016-06-14T05:46:11.036Z,977.59
2016-06-14T05:47:11.054Z,977.57
2016-06-14T05:48:11.042Z,977.59
2016-06-14T05:49:11.060Z,977.62
2016-06-14T05:50:11.064Z,977.6
2016-06-14T05:51:11.066Z,977.63
2016-06-14T05:52:11.070Z,977.64
2016-06-14T05:53:11.073Z,977.72
2016-06-14T05:54:11.076Z,977.75
2016-06-14T05:55:11.078Z,977.72
2016-06-14T05:56:11.082Z,977.73
2016-06-14T05:57:11.101Z,977.74
2016-06-14T05:58:11.104Z,977.69
2016-06-14T05:59:11.107Z,977.68
2016-06-14T06:00:11.110Z,977.72
2016-06-14T06:01:11.113Z,977.69
2016-06-14T06:02:11.132Z,977.67
2016-06-14T06:03:11.119Z,977.67
2016-06-14T06:04:11.123Z,977.64
2016-06-14T06:05:11.142Z,977.56
2016-06-14T06:06:11.159Z,977.59
2016-06-14T06:07:11.148Z,977.56
2016-06-14T06:08:11.166Z,977.54
2016-06-14T06:09:11.169Z,977.54
2016-06-14T06:10:11.172Z,977.56
2016-06-14T06:11:11.191Z,977.54
2016-06-14T06:12:11.194Z,977.56
2016-06-14T06:13:11.197Z,977.61
2016-06-14T06:14:11.216Z,977.55
2016-06-14T06:15:11.219Z,977.55
2016-06-14T06:16:11.690Z,977.6
2016-06-14T06:17:11.226Z,977.5
2016-06-14T06:18:11.243Z,977.49
2016-06-14T06:19:11.263Z,977.5
2016-06-14T06:20:11.249Z,977.58
2016-06-14T06:21:11.268Z,977.54
2016-06-14T06:22:11.303Z,977.4
2016-06-14T06:23:11.275Z,977.51
2016-06-14T06:24:11.293Z,977.44
2016-06-14T06:25:11.296Z,977.43
2016-06-14T06:26:11.331Z,977.4
2016-06-14T06:27:11.318Z,977.28
2016-06-14T06:28:11.337Z,977.27
2016-06-14T06:29:11.356Z,977.38
2016-06-14T06:30:11.358Z,977.5
2016-06-14T06:31:11.690Z,977.56
2016-06-14T06:32:11.365Z,977.52
2016-06-14T06:33:11.384Z,977.39
2016-06-14T06:34:11.387Z,977.42
2016-06-14T06:35:11.406Z,977.4
2016-06-14T06:36:11.409Z,977.45
2016-06-14T06:37:11.412Z,977.44
2016-06-14T06:38:11.430Z,977.4
2016-06-14T06:39:11.449Z,977.33
2016-06-14T06:40:11.436Z,977.37
2016-06-14T06:41:11.455Z,977.41
2016-06-14T06:42:11.458Z,977.35
2016-06-14T06:43:11.462Z,977.39
2016-06-14T06:44:11.479Z,977.37
2016-06-14T06:45:11.482Z,977.32
2016-06-14T06:46:12.027Z,977.33
2016-06-14T06:47:11.570Z,977.32
2016-06-14T06:48:11.612Z,977.3
2016-06-14T06:49:11.654Z,977.32
2016-06-14T06:50:11.713Z,977.26
2016-06-14T06:51:11.739Z,977.22
2016-06-14T06:52:11.755Z,977.17
2016-06-14T06:53:11.788Z,977.16
2016-06-14T06:54:11.805Z,977.17
2016-06-14T06:55:11.838Z,977.24
2016-06-14T06:56:11.834Z,977.22
2016-06-14T06:57:11.858Z,977.18
2016-06-14T06:58:11.865Z,977.13
2016-06-14T06:59:11.874Z,977.11
2016-06-14T07:00:11.898Z,977.09
2016-06-14T07:01:11.888Z,977.1
2016-06-14T07:02:11.909Z,977.09
2016-06-14T07:03:11.929Z,977.19
2016-06-14T07:04:11.918Z,977.19
2016-06-14T07:05:11.939Z,977.06
2016-06-14T07:06:11.927Z,977.04
2016-06-14T07:07:11.946Z,977.04
2016-06-14T07:08:11.950Z,977.15
2016-06-14T07:09:11.954Z,977.08
2016-06-14T07:10:11.972Z,976.99
2016-06-14T07:11:11.991Z,976.97
2016-06-14T07:12:11.995Z,977.14
2016-06-14T07:13:11.983Z,976.99
2016-06-14T07:14:12.001Z,976.94
2016-06-14T07:15:12.005Z,976.99
2016-06-14T07:16:12.727Z,976.96
2016-06-14T07:17:12.011Z,977
2016-06-14T07:18:12.030Z,977.01
2016-06-14T07:19:12.033Z,976.99
2016-06-14T07:20:12.037Z,976.96
2016-06-14T07:21:12.039Z,976.93
2016-06-14T07:22:12.059Z,976.94
2016-06-14T07:23:12.077Z,976.92
2016-06-14T07:24:12.065Z,976.93
2016-06-14T07:25:12.068Z,976.92
2016-06-14T07:26:12.086Z,976.88
2016-06-14T07:27:12.089Z,976.92
2016-06-14T07:28:12.092Z,976.87
2016-06-14T07:29:12.095Z,976.9
2016-06-14T07:30:12.114Z,976.95
2016-06-14T07:31:12.398Z,976.94
2016-06-14T07:32:12.120Z,976.93
2016-06-14T07:33:12.124Z,976.98
2016-06-14T07:34:12.143Z,977.06
2016-06-14T07:35:12.145Z,977.07
2016-06-14T07:36:12.149Z,977.11
2016-06-14T07:37:12.152Z,977.15
2016-06-14T07:38:12.138Z,977.05
2016-06-14T07:39:12.157Z,976.98
2016-06-14T07:40:12.161Z,976.93
2016-06-14T07:41:12.164Z,976.81
2016-06-14T07:42:12.167Z,976.79
2016-06-14T07:43:12.185Z,976.8
2016-06-14T07:44:12.188Z,976.92
2016-06-14T07:45:12.191Z,976.92
2016-06-14T07:46:12.226Z,976.91
2016-06-14T07:47:12.228Z,976.9
2016-06-14T07:48:12.216Z,976.84
2016-06-14T07:49:12.235Z,976.83
2016-06-14T07:50:12.238Z,976.78
2016-06-14T07:51:12.240Z,976.83
2016-06-14T07:52:12.244Z,976.79
2016-06-14T07:53:12.263Z,976.82
2016-06-14T07:54:12.266Z,976.89
2016-06-14T07:55:12.269Z,976.95
2016-06-14T07:56:12.272Z,976.83
2016-06-14T07:57:12.291Z,976.83
2016-06-14T07:58:12.310Z,976.88
2016-06-14T07:59:12.312Z,976.84
2016-06-14T08:00:12.315Z,976.84
2016-06-14T08:01:12.319Z,976.82
2016-06-14T08:02:12.337Z,976.88
2016-06-14T08:03:12.325Z,976.81
2016-06-14T08:04:12.328Z,976.8
2016-06-14T08:05:12.347Z,976.82
2016-06-14T08:06:12.366Z,976.84
2016-06-14T08:07:12.368Z,976.84
2016-06-14T08:08:12.356Z,976.82
2016-06-14T08:09:12.375Z,976.78
2016-06-14T08:10:12.393Z,976.79
2016-06-14T08:11:12.396Z,976.75
2016-06-14T08:12:12.400Z,976.74
2016-06-14T08:13:12.402Z,976.74
2016-06-14T08:14:12.405Z,976.78
2016-06-14T08:15:12.424Z,976.74
2016-06-14T08:16:12.553Z,976.77
2016-06-14T08:17:12.430Z,976.75
2016-06-14T08:18:12.433Z,976.74
2016-06-14T08:19:12.437Z,976.74
2016-06-14T08:20:12.440Z,976.75
2016-06-14T08:21:12.458Z,976.69
2016-06-14T08:22:12.446Z,976.71
2016-06-14T08:23:12.464Z,976.71
2016-06-14T08:24:12.467Z,976.68
2016-06-14T08:25:12.487Z,976.65
2016-06-14T08:26:12.505Z,976.65
2016-06-14T08:27:12.508Z,976.7
2016-06-14T08:28:12.495Z,976.7
2016-06-14T08:29:12.499Z,976.75
2016-06-14T08:30:12.518Z,976.78
2016-06-14T08:31:12.504Z,976.7
2016-06-14T08:32:12.508Z,976.68
2016-06-14T08:33:12.527Z,976.61
2016-06-14T08:34:12.529Z,976.62
2016-06-14T08:35:12.533Z,976.53
2016-06-14T08:36:12.536Z,976.55
2016-06-14T08:37:12.554Z,976.51
2016-06-14T08:38:12.573Z,976.52
2016-06-14T08:39:12.545Z,976.51
2016-06-14T08:40:12.563Z,976.51
2016-06-14T08:41:12.566Z,976.56
2016-06-14T08:42:12.586Z,976.56
2016-06-14T08:43:12.589Z,976.52
2016-06-14T08:44:12.591Z,976.57
2016-06-14T08:45:12.595Z,976.61
2016-06-14T08:46:12.597Z,976.62
2016-06-14T08:47:12.601Z,976.73
2016-06-14T08:48:12.620Z,976.72
2016-06-14T08:49:12.607Z,976.8
2016-06-14T08:50:12.626Z,976.79
2016-06-14T08:51:12.630Z,976.8
2016-06-14T08:52:12.632Z,976.81
2016-06-14T08:53:12.681Z,976.9
2016-06-14T08:54:12.638Z,976.87
2016-06-14T08:55:12.642Z,976.81
2016-06-14T08:56:12.644Z,976.88
2016-06-14T08:57:12.663Z,976.79
2016-06-14T08:58:12.666Z,976.77
2016-06-14T08:59:12.668Z,976.69
2016-06-14T09:00:12.672Z,976.64
2016-06-14T09:01:12.691Z,976.58
2016-06-14T09:02:12.694Z,976.59
2016-06-14T09:03:12.681Z,976.54
2016-06-14T09:04:12.700Z,976.56
2016-06-14T09:05:12.703Z,976.48
2016-06-14T09:06:12.721Z,976.5
2016-06-14T09:07:12.724Z,976.5
2016-06-14T09:08:12.728Z,976.48
2016-06-14T09:09:12.731Z,976.49
2016-06-14T09:10:12.733Z,976.52
2016-06-14T09:11:12.736Z,976.5
2016-06-14T09:12:12.739Z,976.49
2016-06-14T09:13:12.743Z,976.45
2016-06-14T09:14:12.762Z,976.42
2016-06-14T09:15:12.765Z,976.44
2016-06-14T09:16:13.424Z,976.51
2016-06-14T09:17:12.787Z,976.62
2016-06-14T09:18:12.790Z,976.63
2016-06-14T09:19:12.793Z,976.62
2016-06-14T09:20:12.811Z,976.67
2016-06-14T09:21:12.815Z,976.56
2016-06-14T09:22:12.802Z,976.56
2016-06-14T09:23:12.806Z,976.5
2016-06-14T09:24:12.809Z,976.54
2016-06-14T09:25:12.827Z,976.49
2016-06-14T09:26:12.830Z,976.48
2016-06-14T09:27:12.833Z,976.42
2016-06-14T09:28:12.836Z,976.4
2016-06-14T09:29:12.855Z,976.35
2016-06-14T09:30:12.858Z,976.33
2016-06-14T09:31:12.861Z,976.27
2016-06-14T09:32:12.880Z,976.21
2016-06-14T09:33:12.883Z,976.15
2016-06-14T09:34:12.887Z,976.08
2016-06-14T09:35:12.889Z,976.02
2016-06-14T09:36:12.892Z,976.02
2016-06-14T09:37:12.896Z,976.02
2016-06-14T09:38:12.899Z,976.03
2016-06-14T09:39:12.902Z,976.04
2016-06-14T09:40:12.920Z,976.11
2016-06-14T09:41:12.907Z,976.14
2016-06-14T09:42:12.926Z,976.12
2016-06-14T09:43:12.929Z,976.1
2016-06-14T09:44:12.932Z,976.09
2016-06-14T09:45:12.952Z,976.12
2016-06-14T09:46:12.954Z,976.16
2016-06-14T09:47:12.958Z,976.14
2016-06-14T09:48:12.960Z,976.1
2016-06-14T09:49:12.963Z,976.02
2016-06-14T09:50:12.967Z,976.02
2016-06-14T09:51:12.984Z,975.98
2016-06-14T09:52:12.988Z,976.03
2016-06-14T09:53:12.990Z,976.03
2016-06-14T09:54:12.994Z,976.03
2016-06-14T09:55:12.997Z,976.07
2016-06-14T09:56:13.000Z,976.07
2016-06-14T09:57:13.019Z,976.07
2016-06-14T09:58:13.022Z,976.09
2016-06-14T09:59:13.025Z,976.07
2016-06-14T10:00:13.044Z,976.07
2016-06-14T10:01:13.031Z,976.08
2016-06-14T10:02:13.035Z,976.11
2016-06-14T10:03:13.054Z,976.1
2016-06-14T10:04:13.056Z,976.02
2016-06-14T10:05:13.060Z,976
2016-06-14T10:06:13.063Z,976.02
2016-06-14T10:07:13.081Z,976.08
2016-06-14T10:08:13.084Z,976.04
2016-06-14T10:09:13.087Z,976.04
2016-06-14T10:10:13.090Z,976.07
2016-06-14T10:11:13.093Z,976.08
2016-06-14T10:12:13.096Z,976
2016-06-14T10:13:13.115Z,975.97
2016-06-14T10:14:13.118Z,975.95
2016-06-14T10:15:13.121Z,975.93
2016-06-14T10:16:13.124Z,975.94
2016-06-14T10:17:13.158Z,975.96
2016-06-14T10:18:13.147Z,975.99
2016-06-14T10:19:13.150Z,975.94
2016-06-14T10:20:13.152Z,975.95
2016-06-14T10:21:13.156Z,975.92
2016-06-14T10:22:13.174Z,975.89
2016-06-14T10:23:13.177Z,975.89
2016-06-14T10:24:13.180Z,975.89
2016-06-14T10:25:13.199Z,975.91
2016-06-14T10:26:13.202Z,975.93
2016-06-14T10:27:13.220Z,975.91
2016-06-14T10:28:13.209Z,975.88
2016-06-14T10:29:13.226Z,975.87
2016-06-14T10:30:13.214Z,975.84
2016-06-14T10:31:13.232Z,975.81
2016-06-14T10:32:13.251Z,975.74
2016-06-14T10:33:13.239Z,975.77
2016-06-14T10:34:13.258Z,975.72
2016-06-14T10:35:13.260Z,975.71
2016-06-14T10:36:13.264Z,975.68
2016-06-14T10:37:13.267Z,975.73
2016-06-14T10:38:13.286Z,975.76
2016-06-14T10:39:13.289Z,975.79
2016-06-14T10:40:13.293Z,975.76
2016-06-14T10:41:13.295Z,975.81
2016-06-14T10:42:13.313Z,975.78
2016-06-14T10:43:13.332Z,975.82
2016-06-14T10:44:13.320Z,975.83
2016-06-14T10:45:13.323Z,975.78
2016-06-14T10:46:13.325Z,975.81
2016-06-14T10:47:13.626Z,975.8
2016-06-14T10:48:13.363Z,975.78
2016-06-14T10:49:13.366Z,975.75
2016-06-14T10:50:13.370Z,975.75
2016-06-14T10:51:13.373Z,975.72
2016-06-14T10:52:13.376Z,975.71
2016-06-14T10:53:13.379Z,975.72
2016-06-14T10:54:13.398Z,975.72
2016-06-14T10:55:13.400Z,975.66
2016-06-14T10:56:13.403Z,975.65
2016-06-14T10:57:13.423Z,975.62
2016-06-14T10:58:13.425Z,975.66
2016-06-14T10:59:13.428Z,975.66
2016-06-14T11:00:13.446Z,975.67
2016-06-14T11:01:13.466Z,975.57
2016-06-14T11:02:13.438Z,975.59
2016-06-14T11:03:13.456Z,975.61
2016-06-14T11:04:13.459Z,975.58
2016-06-14T11:05:13.462Z,975.61
2016-06-14T11:06:13.481Z,975.53
2016-06-14T11:07:13.484Z,975.57
2016-06-14T11:08:13.487Z,975.58
2016-06-14T11:09:13.506Z,975.56
2016-06-14T11:10:13.493Z,975.53
2016-06-14T11:11:13.512Z,975.51
2016-06-14T11:12:13.515Z,975.48
2016-06-14T11:13:13.518Z,975.51
2016-06-14T11:14:13.521Z,975.57
2016-06-14T11:15:13.525Z,975.55
2016-06-14T11:16:13.543Z,975.57
2016-06-14T11:17:13.858Z,975.6
2016-06-14T11:18:13.549Z,975.59
2016-06-14T11:19:13.552Z,975.51
2016-06-14T11:20:13.555Z,975.52
2016-06-14T11:21:13.575Z,975.51
2016-06-14T11:22:13.577Z,975.49
2016-06-14T11:23:13.581Z,975.51
2016-06-14T11:24:13.584Z,975.46
2016-06-14T11:25:13.617Z,975.49
2016-06-14T11:26:13.606Z,975.42
2016-06-14T11:27:13.609Z,975.45
2016-06-14T11:28:13.611Z,975.42
2016-06-14T11:29:13.615Z,975.45
2016-06-14T11:30:13.618Z,975.45
2016-06-14T11:31:13.636Z,975.49
2016-06-14T11:32:13.858Z,975.47
2016-06-14T11:33:13.642Z,975.45
2016-06-14T11:34:13.661Z,975.43
2016-06-14T11:35:13.648Z,975.48
2016-06-14T11:36:13.651Z,975.45
2016-06-14T11:37:13.671Z,975.49
2016-06-14T11:38:13.689Z,975.51
2016-06-14T11:39:13.677Z,975.58
2016-06-14T11:40:13.695Z,975.58
2016-06-14T11:41:13.697Z,975.58
2016-06-14T11:42:13.701Z,975.53
2016-06-14T11:43:13.704Z,975.48
2016-06-14T11:44:13.707Z,975.44
2016-06-14T11:45:13.710Z,975.41
2016-06-14T11:46:13.713Z,975.44
2016-06-14T11:47:15.576Z,975.43
2016-06-14T11:48:13.735Z,975.43
2016-06-14T11:49:13.738Z,975.43
2016-06-14T11:50:13.742Z,975.47
2016-06-14T11:51:13.745Z,975.5
2016-06-14T11:52:13.748Z,975.5
2016-06-14T11:53:13.751Z,975.48
2016-06-14T11:54:13.753Z,975.44
2016-06-14T11:55:13.773Z,975.47
2016-06-14T11:56:13.791Z,975.45
2016-06-14T11:57:13.778Z,975.5
2016-06-14T11:58:13.797Z,975.51
2016-06-14T11:59:13.785Z,975.5
2016-06-14T12:00:13.788Z,975.49
2016-06-14T12:01:13.791Z,975.49
2016-06-14T12:02:13.809Z,975.54
2016-06-14T12:03:13.813Z,975.56
2016-06-14T12:04:13.816Z,975.5
2016-06-14T12:05:13.835Z,975.48
2016-06-14T12:06:13.821Z,975.47
2016-06-14T12:07:13.840Z,975.54
2016-06-14T12:08:13.844Z,975.57
2016-06-14T12:09:13.831Z,975.51
2016-06-14T12:10:13.850Z,975.46
2016-06-14T12:11:13.853Z,975.51
2016-06-14T12:12:13.856Z,975.59
2016-06-14T12:13:13.859Z,975.66
2016-06-14T12:14:13.862Z,975.59
2016-06-14T12:15:13.866Z,975.73
2016-06-14T12:16:13.868Z,975.8
2016-06-14T12:17:13.888Z,975.86
2016-06-14T12:18:13.874Z,975.92
2016-06-14T12:19:13.894Z,976
2016-06-14T12:20:13.896Z,976.09
2016-06-14T12:21:13.900Z,976.12
2016-06-14T12:22:13.903Z,976.12
2016-06-14T12:23:13.906Z,976.17
2016-06-14T12:24:13.923Z,976.16
2016-06-14T12:25:13.912Z,976.12
2016-06-14T12:26:13.916Z,976.13
2016-06-14T12:27:13.918Z,976.11
2016-06-14T12:28:13.921Z,976.14
2016-06-14T12:29:13.924Z,976.13
2016-06-14T12:30:13.927Z,976.13
2016-06-14T12:31:13.930Z,976.17